This is the latest recevied weather packets stored in our database for station/object KC9VAF. If no packets are shown the sender has not sent any weather packets the latest 1 day(s).
| Time | Temp. | Humidity | Pressure | Rain* | Wind** | Luminosity | Snow |
|---|---|---|---|---|---|---|---|
| 1778064888 | 1.11° C | 80% | 1012.7 hPa | 0 mm | - | 8 W/m² | - |
| 1778063375 | 0.56° C | 81% | 1012.8 hPa | 0 mm | - | 0 W/m² | - |
| 1778061862 | 1.11° C | 81% | 1012.7 hPa | 0 mm | - | 0 W/m² | - |
| 1778061560 | 0.56° C | 81% | 1012.7 hPa | 0 mm | - | 0 W/m² | - |
| 1778060954 | 1.11° C | 80% | 1012.7 hPa | 0 mm | - | 0 W/m² | - |
| 1778060653 | 1.11° C | 81% | 1012.7 hPa | 0 mm | - | 0 W/m² | - |
| 1778059139 | 1.11° C | 79% | 1012.9 hPa | 0 mm | - | 0 W/m² | - |
| 1778058232 | 1.67° C | 79% | 1012.6 hPa | 0 mm | - | 0 W/m² | - |
| 1778057929 | 1.11° C | 80% | 1012.9 hPa | 0 mm | - | 0 W/m² | - |
| 1778057625 | 1.11° C | 81% | 1012.8 hPa | 0 mm | - | 0 W/m² | - |
| 1778056715 | 0.56° C | 82% | 1012.7 hPa | 0 mm | - | 0 W/m² | - |
| 1778056110 | 1.67° C | 82% | 1012.5 hPa | 0 mm | - | 0 W/m² | - |
| 1778055806 | 1.67° C | 81% | 1012.4 hPa | 0 mm | - | 0 W/m² | - |
| 1778055502 | 1.67° C | 79% | 1012.5 hPa | 0 mm | - | 0 W/m² | - |
| 1778054898 | 2.22° C | 74% | 1012.3 hPa | 0 mm | - | 0 W/m² | - |
| 1778054594 | 2.22° C | 73% | 1012.3 hPa | 0 mm | - | 0 W/m² | - |
| 1778054292 | 2.22° C | 72% | 1012 hPa | 0 mm | - | 0 W/m² | - |
| 1778053686 | 2.22° C | 71% | 1012.2 hPa | 0 mm | - | 0 W/m² | - |
| 1778052475 | 2.78° C | 69% | 1012.2 hPa | 0 mm | - | 0 W/m² | - |
| 1778051870 | 3.33° C | 67% | 1012.3 hPa | 0 mm | - | 0 W/m² | - |
| 1778051568 | 3.33° C | 67% | 1012.4 hPa | 0 mm | - | 0 W/m² | - |
| 1778050053 | 3.89° C | 63% | 1012.2 hPa | 0 mm | - | 0 W/m² | - |
| 1778049143 | 5° C | 59% | 1012.3 hPa | 0 mm | - | 0 W/m² | - |
| 1778047932 | 6.11° C | 55% | 1012.3 hPa | 0 mm | - | 0 W/m² | - |
| 1778047631 | 6.11° C | 54% | 1012 hPa | 0 mm | - | 0 W/m² | - |
* Rain latest hour (hover to see other rain measurements)
** Current wind speed in m/s (hover to see current wind gust speed)